Time;durP1;ratioP1;P1;durP2;ratioP2;P2;SDS_P1;SDS_P2;PMS_P1;PMS_P2;Temp;Humidity;BMP_temperature;BMP_pressure;BME280_temperature;BME280_humidity;BME280_pressure;Samples;Min_cycle;Max_cycle;Signal;HPM_P1;HPM_P2
2021/11/23 00:00:42;;;;;;;;;;;;;;;1.95;98.11;99753.80;102327;1310;61244;-72
2021/11/23 00:03:09;;;;;;;33.50;25.60;;;;;;;1.89;98.21;99760.59;102353;1310;62225;-73
2021/11/23 00:05:36;;;;;;;35.70;24.50;;;;;;;1.85;98.47;99758.90;102201;1313;74951;-73
2021/11/23 00:08:03;;;;;;;31.80;23.30;;;;;;;1.81;98.49;99756.19;102276;1310;69315;-72
2021/11/23 00:10:31;;;;;;;41.00;28.10;;;;;;;1.75;98.52;99759.80;102352;1310;72893;-72
2021/11/23 00:12:58;;;;;;;33.20;24.60;;;;;;;1.68;98.64;99760.45;102342;1314;62301;-72
2021/11/23 00:15:25;;;;;;;35.40;24.30;;;;;;;1.62;98.66;99761.96;102365;1314;62053;-72
2021/11/23 00:17:51;;;;;;;38.70;24.40;;;;;;;1.56;98.73;99756.29;102370;1310;75564;-72
2021/11/23 00:20:18;;;;;;;34.40;23.10;;;;;;;1.51;98.74;99758.14;102035;1313;69568;-71
2021/11/23 00:22:45;;;;;;;31.40;20.70;;;;;;;1.44;98.64;99760.54;102295;1310;73678;-73
2021/11/23 00:25:11;;;;;;;28.80;20.20;;;;;;;1.39;98.59;99766.25;102258;1310;61326;-72
2021/11/23 00:27:38;;;;;;;24.60;18.70;;;;;;;1.34;98.52;99771.55;102304;1311;61744;-72
2021/11/23 00:30:05;;;;;;;27.50;20.00;;;;;;;1.30;98.46;99776.19;102303;1311;76555;-72
2021/11/23 00:32:32;;;;;;;26.80;18.00;;;;;;;1.26;98.44;99776.42;102334;1313;69623;-73
2021/11/23 00:34:59;;;;;;;23.70;17.90;;;;;;;1.21;98.39;99777.73;102300;1310;73579;-73
2021/11/23 00:37:26;;;;;;;25.60;17.50;;;;;;;1.19;98.26;99770.77;102327;1310;61342;-72
2021/11/23 00:39:57;;;;;;;27.80;18.00;;;;;;;1.14;98.13;99770.31;101986;1314;62127;-74
2021/11/23 00:42:25;;;;;;;33.80;21.10;;;;;;;1.08;98.09;99767.25;102248;1317;76434;-73
2021/11/23 00:44:53;;;;;;;28.20;21.70;;;;;;;1.04;98.27;99766.80;102325;1310;69836;-72
2021/11/23 00:47:20;;;;;;;27.60;20.70;;;;;;;0.99;98.26;99770.38;102237;1313;74789;-72
2021/11/23 00:49:47;;;;;;;26.40;17.70;;;;;;;0.94;98.27;99779.73;102369;1310;61399;-73
2021/11/23 00:52:14;;;;;;;23.50;16.60;;;;;;;0.87;98.25;99787.00;102336;1310;61357;-72
2021/11/23 00:54:40;;;;;;;26.50;18.50;;;;;;;0.81;98.32;99787.63;102211;1313;74033;-73
2021/11/23 00:57:07;;;;;;;28.00;19.80;;;;;;;0.78;98.50;99787.31;102335;1311;69870;-72
2021/11/23 00:59:36;;;;;;;31.50;20.10;;;;;;;0.74;98.65;99795.41;101962;1313;74540;-73
2021/11/23 01:02:03;;;;;;;39.30;27.10;;;;;;;0.71;98.75;99797.21;102149;1311;61425;-73
2021/11/23 01:04:31;;;;;;;40.30;30.60;;;;;;;0.69;98.80;99796.20;102391;1310;61364;-73
2021/11/23 01:06:58;;;;;;;40.70;29.20;;;;;;;0.69;99.02;99797.41;102093;1318;74320;-73
2021/11/23 01:09:25;;;;;;;36.00;26.30;;;;;;;0.69;99.04;99797.92;102471;1310;69625;-72
2021/11/23 01:11:51;;;;;;;34.60;23.10;;;;;;;0.70;99.11;99798.09;102343;1310;73678;-73
2021/11/23 01:14:18;;;;;;;31.60;22.10;;;;;;;0.72;99.11;99800.52;101956;1314;61384;-72
2021/11/23 01:16:47;;;;;;;32.10;23.20;;;;;;;0.75;99.17;99803.43;102304;1311;62303;-72
2021/11/23 01:19:16;;;;;;;43.90;31.40;;;;;;;0.78;99.11;99805.85;101836;1317;73362;-72
2021/11/23 01:21:44;;;;;;;36.30;25.30;;;;;;;0.81;98.99;99806.51;102294;1310;69983;-72
2021/11/23 01:24:12;;;;;;;33.20;24.10;;;;;;;0.88;98.93;99802.05;102372;1310;73514;-71
2021/11/23 01:26:41;;;;;;;29.60;21.10;;;;;;;0.93;98.81;99801.79;102283;1311;61215;-72
2021/11/23 01:29:10;;;;;;;29.00;20.00;;;;;;;0.98;98.62;99803.27;102014;1310;61639;-71
2021/11/23 01:31:37;;;;;;;36.40;22.40;;;;;;;1.04;98.49;99799.87;102277;1314;74490;-73
2021/11/23 01:34:04;;;;;;;36.20;25.10;;;;;;;1.11;98.41;99807.29;102320;1310;69617;-71
2021/11/23 01:36:32;;;;;;;31.50;22.30;;;;;;;1.16;98.33;99806.85;102268;1311;74503;-72
2021/11/23 01:38:59;;;;;;;33.50;22.50;;;;;;;1.21;98.29;99802.94;102264;1314;61323;-73
2021/11/23 01:41:26;;;;;;;30.40;19.30;;;;;;;1.26;98.33;99796.73;101991;1310;61294;-73
2021/11/23 01:43:53;;;;;;;35.90;25.10;;;;;;;1.27;98.15;99793.20;102175;1317;75399;-72
2021/11/23 01:46:20;;;;;;;32.50;24.60;;;;;;;1.28;98.38;99794.23;102223;1313;69585;-72
2021/11/23 01:48:47;;;;;;;26.00;19.90;;;;;;;1.29;98.24;99791.77;102303;1310;73509;-72
2021/11/23 01:51:13;;;;;;;28.30;20.70;;;;;;;1.30;98.16;99794.37;102387;1311;61407;-72
2021/11/23 01:53:40;;;;;;;30.10;21.90;;;;;;;1.30;98.04;99791.40;102368;1310;61986;-72
2021/11/23 01:56:07;;;;;;;31.70;23.60;;;;;;;1.31;98.10;99792.09;102397;1311;76346;-72
2021/11/23 01:58:34;;;;;;;34.20;28.10;;;;;;;1.32;98.05;99792.60;102344;1317;70445;-72
2021/11/23 02:01:06;;;;;;;30.50;22.90;;;;;;;1.34;98.14;99789.41;102336;1311;74560;-71
2021/11/23 02:03:35;;;;;;;26.10;17.80;;;;;;;1.34;98.21;99787.48;102243;1314;61402;-74
2021/11/23 02:06:02;;;;;;;22.20;15.50;;;;;;;1.34;98.20;99792.73;102313;1317;61286;-73
2021/11/23 02:08:28;;;;;;;24.10;16.80;;;;;;;1.35;98.24;99796.58;102288;1313;74891;-73
2021/11/23 02:10:55;;;;;;;27.00;19.30;;;;;;;1.35;98.21;99795.35;102300;1313;67953;-73
2021/11/23 02:13:22;;;;;;;26.70;19.60;;;;;;;1.35;98.22;99798.34;102088;1314;72944;-73
2021/11/23 02:15:50;;;;;;;30.10;21.30;;;;;;;1.34;98.17;99792.40;102448;1310;61316;-72
2021/11/23 02:18:22;;;;;;;29.60;20.70;;;;;;;1.33;98.19;99793.83;102422;1311;61293;-73
2021/11/23 02:20:49;;;;;;;26.20;19.30;;;;;;;1.34;98.04;99792.58;102366;1313;75478;-72
2021/11/23 02:23:17;;;;;;;27.90;19.00;;;;;;;1.35;98.08;99787.48;102426;1310;70484;-73
2021/11/23 02:25:44;;;;;;;24.60;18.20;;;;;;;1.36;97.88;99786.59;102506;1310;74576;-75
2021/11/23 02:28:11;;;;;;;25.40;18.50;;;;;;;1.36;97.88;99788.52;102545;1311;61304;-73
2021/11/23 02:30:47;;;;;;;21.10;17.20;;;;;;;1.40;97.90;99787.05;102254;1316;62804;-73
2021/11/23 02:33:17;;;;;;;26.70;17.50;;;;;;;1.41;97.81;99787.02;102591;1313;76548;-72
2021/11/23 02:35:44;;;;;;;27.70;19.90;;;;;;;1.42;97.85;99783.33;103067;1310;69588;-72
2021/11/23 02:38:12;;;;;;;29.50;21.80;;;;;;;1.44;97.96;99786.09;102843;1310;74611;-72
2021/11/23 02:40:39;;;;;;;26.70;19.40;;;;;;;1.46;97.83;99789.38;102987;1314;61329;-72
2021/11/23 02:43:05;;;;;;;23.20;16.80;;;;;;;1.49;97.61;99791.77;104650;1313;61134;-72
2021/11/23 02:45:32;;;;;;;22.00;16.20;;;;;;;1.50;97.56;99795.61;105315;1310;75459;-73
2021/11/23 02:48:01;;;;;;;24.20;17.00;;;;;;;1.51;97.61;99797.89;105150;1310;68389;-74
2021/11/23 02:50:28;;;;;;;22.40;15.10;;;;;;;1.52;97.42;99796.63;105310;1311;73430;-73
2021/11/23 02:52:55;;;;;;;18.80;13.70;;;;;;;1.52;97.22;99798.57;103073;1310;61392;-72
2021/11/23 02:55:25;;;;;;;17.20;12.80;;;;;;;1.54;97.07;99793.09;102505;1310;61385;-73
2021/11/23 02:57:53;;;;;;;15.60;11.60;;;;;;;1.57;96.98;99797.61;102541;1310;76783;-72
2021/11/23 03:00:33;;;;;;;18.30;12.30;;;;;;;1.59;96.76;99802.65;102511;1313;69418;-72
2021/11/23 03:03:00;;;;;;;16.70;13.40;;;;;;;1.60;96.80;99807.55;102434;1310;74830;-73
2021/11/23 03:05:27;;;;;;;15.80;10.50;;;;;;;1.61;96.63;99817.68;102332;1310;61219;-73
2021/11/23 03:07:55;;;;;;;14.00;10.30;;;;;;;1.62;96.43;99819.05;102397;1310;61292;-72
2021/11/23 03:10:24;;;;;;;13.20;10.00;;;;;;;1.64;96.23;99820.06;102359;1314;76239;-73
2021/11/23 03:12:52;;;;;;;14.20;10.80;;;;;;;1.67;96.40;99821.95;102317;1314;69699;-73
2021/11/23 03:15:20;;;;;;;15.60;10.70;;;;;;;1.69;96.24;99824.02;102350;1310;74486;-73
2021/11/23 03:17:47;;;;;;;15.60;10.50;;;;;;;1.69;96.12;99825.23;102302;1310;61320;-73
2021/11/23 03:20:17;;;;;;;13.80;9.70;;;;;;;1.70;95.99;99828.55;102332;1311;62611;-73
2021/11/23 03:22:44;;;;;;;;;;;;;;;1.71;96.03;99830.64;102388;1317;75993;-71
2021/11/23 03:25:11;;;;;;;13.00;10.10;;;;;;;1.70;96.22;99828.90;102288;1310;68633;-71
2021/11/23 03:27:38;;;;;;;13.50;10.30;;;;;;;1.70;96.24;99830.30;102325;1310;74494;-72
2021/11/23 03:30:07;;;;;;;14.00;9.30;;;;;;;1.69;96.18;99831.91;102315;1313;61322;-71
2021/11/23 03:32:33;;;;;;;14.30;9.20;;;;;;;1.69;96.22;99831.73;101993;1316;61427;-73
2021/11/23 03:35:00;;;;;;;13.50;9.50;;;;;;;1.69;96.13;99830.48;102159;1314;74873;-72
2021/11/23 03:37:27;;;;;;;14.50;9.80;;;;;;;1.69;96.20;99829.27;102412;1310;69995;-72
2021/11/23 03:39:55;;;;;;;16.20;11.40;;;;;;;1.69;96.24;99832.07;102498;1311;73513;-72
2021/11/23 03:42:23;;;;;;;16.70;10.70;;;;;;;1.69;96.15;99829.27;102522;1310;61342;-74
2021/11/23 03:44:58;;;;;;;15.60;10.80;;;;;;;1.70;96.19;99831.88;102353;1310;61297;-72
2021/11/23 03:47:28;;;;;;;14.40;11.10;;;;;;;1.71;96.15;99833.80;102343;1310;76271;-72
2021/11/23 03:49:57;;;;;;;13.90;10.10;;;;;;;1.71;96.11;99829.95;102382;1311;70502;-72
2021/11/23 03:52:24;;;;;;;15.80;11.00;;;;;;;1.72;96.08;99828.52;102395;1311;73933;-72
2021/11/23 03:54:51;;;;;;;14.10;10.60;;;;;;;1.72;96.21;99830.44;102317;1310;61329;-73
2021/11/23 03:57:18;;;;;;;13.30;9.40;;;;;;;1.72;96.25;99826.08;102245;1310;61866;-72
2021/11/23 03:59:48;;;;;;;14.20;9.90;;;;;;;1.72;96.25;99826.95;102348;1311;75449;-72
2021/11/23 04:02:20;;;;;;;14.20;10.50;;;;;;;1.71;96.34;99826.27;102343;1310;70970;-73
2021/11/23 04:04:48;;;;;;;12.40;9.90;;;;;;;1.73;96.40;99822.54;102290;1316;72444;-73
2021/11/23 04:07:15;;;;;;;12.20;9.60;;;;;;;1.74;95.84;99822.36;102350;1310;61307;-72
2021/11/23 04:09:42;;;;;;;12.10;8.80;;;;;;;1.76;95.55;99823.91;102339;1311;61288;-73
2021/11/23 04:12:10;;;;;;;11.90;8.00;;;;;;;1.78;95.53;99824.56;102288;1316;75540;-73
2021/11/23 04:14:37;;;;;;;12.30;8.80;;;;;;;1.79;95.53;99825.95;102213;1317;69461;-73
2021/11/23 04:17:06;;;;;;;10.70;8.70;;;;;;;1.80;95.61;99830.14;102359;1313;74721;-74
2021/11/23 04:19:33;;;;;;;14.30;10.10;;;;;;;1.80;95.62;99828.23;102259;1317;61301;-72
2021/11/23 04:22:00;;;;;;;15.30;9.70;;;;;;;1.80;95.81;99834.33;102354;1314;61654;-71
2021/11/23 04:24:28;;;;;;;12.40;10.50;;;;;;;1.80;95.79;99834.19;102305;1310;76920;-72
2021/11/23 04:26:54;;;;;;;16.90;10.60;;;;;;;1.80;95.93;99838.38;102209;1317;71321;-73
2021/11/23 04:29:22;;;;;;;15.00;11.40;;;;;;;1.81;96.09;99839.21;102209;1317;74514;-72
2021/11/23 04:31:50;;;;;;;17.50;12.50;;;;;;;1.82;96.13;99846.04;102323;1310;61295;-72
2021/11/23 04:34:19;;;;;;;15.50;13.20;;;;;;;1.82;96.18;99846.39;102255;1313;62175;-72
2021/11/23 04:36:45;;;;;;;17.00;13.00;;;;;;;1.82;96.18;99844.29;101227;1317;1003062;-72
2021/11/23 04:39:13;;;;;;;15.60;12.70;;;;;;;1.82;96.46;99844.11;102354;1311;70090;-71
2021/11/23 04:41:41;;;;;;;21.40;13.00;;;;;;;1.83;96.62;99839.02;102129;1310;227121;-73
2021/11/23 04:44:08;;;;;;;17.80;13.10;;;;;;;1.82;96.55;99834.30;102337;1314;61292;-73
2021/11/23 04:46:35;;;;;;;19.00;13.90;;;;;;;1.83;96.69;99828.52;102350;1313;62148;-72
2021/11/23 04:49:03;;;;;;;17.60;13.70;;;;;;;1.82;96.82;99827.83;102327;1314;75462;-75
2021/11/23 04:51:30;;;;;;;16.40;12.60;;;;;;;1.80;96.79;99825.77;102325;1313;70525;-73
2021/11/23 04:53:56;;;;;;;14.70;11.80;;;;;;;1.80;96.88;99825.06;102347;1310;73211;-71
2021/11/23 04:56:23;;;;;;;20.10;14.20;;;;;;;1.80;96.85;99824.55;102248;1313;61391;-72
2021/11/23 04:58:49;;;;;;;17.10;13.10;;;;;;;1.79;96.93;99824.38;102366;1311;61343;-72
2021/11/23 05:01:16;;;;;;;16.90;11.70;;;;;;;1.78;96.99;99827.36;102329;1310;76456;-72
2021/11/23 05:03:43;;;;;;;15.20;12.60;;;;;;;1.78;97.05;99832.44;102372;1313;67857;-72
2021/11/23 05:06:09;;;;;;;15.70;11.80;;;;;;;1.78;97.05;99841.02;102070;1320;74663;-72
2021/11/23 05:08:36;;;;;;;16.20;13.10;;;;;;;1.78;97.04;99835.42;102323;1313;61394;-74
2021/11/23 05:11:04;;;;;;;14.80;11.70;;;;;;;1.78;97.21;99829.81;101866;1316;61231;-73
2021/11/23 05:13:31;;;;;;;16.60;12.00;;;;;;;1.78;97.16;99830.52;101819;1316;76535;-73
2021/11/23 05:15:57;;;;;;;14.10;10.80;;;;;;;1.77;97.14;99834.57;102386;1310;70335;-72
2021/11/23 05:18:24;;;;;;;13.30;9.60;;;;;;;1.77;97.05;99832.29;102341;1310;74545;-72
2021/11/23 05:20:50;;;;;;;13.80;10.50;;;;;;;1.78;96.86;99831.58;102370;1310;61288;-73
2021/11/23 05:23:17;;;;;;;16.50;14.10;;;;;;;1.77;96.84;99832.10;102367;1310;62160;-72
2021/11/23 05:25:43;;;;;;;16.50;13.00;;;;;;;1.77;96.84;99834.05;102340;1310;76466;-72
2021/11/23 05:28:10;;;;;;;15.80;10.70;;;;;;;1.77;96.72;99837.73;102393;1314;70542;-72
2021/11/23 05:30:37;;;;;;;13.40;9.50;;;;;;;1.75;96.19;99842.48;102289;1310;73533;-73
2021/11/23 05:33:05;;;;;;;11.80;8.50;;;;;;;1.73;95.86;99843.04;102310;1311;61311;-72
2021/11/23 05:35:32;;;;;;;14.40;7.50;;;;;;;1.69;95.49;99848.54;102451;1314;61276;-72
2021/11/23 05:37:59;;;;;;;9.20;6.40;;;;;;;1.65;95.09;99845.98;102299;1310;76447;-73
2021/11/23 05:40:25;;;;;;;9.50;7.20;;;;;;;1.61;95.20;99846.23;102418;1310;69526;-72
2021/11/23 05:42:52;;;;;;;11.20;8.00;;;;;;;1.57;95.39;99844.71;102351;1310;73355;-72
2021/11/23 05:45:18;;;;;;;11.90;6.90;;;;;;;1.51;95.34;99840.42;101997;1313;61943;-71
2021/11/23 05:47:45;;;;;;;8.30;5.80;;;;;;;1.42;95.21;99841.46;102318;1313;61413;-73
2021/11/23 05:50:12;;;;;;;10.50;6.90;;;;;;;1.31;95.04;99848.64;102362;1310;74645;-72
2021/11/23 05:52:39;;;;;;;6.80;5.40;;;;;;;1.20;94.97;99840.58;101985;1317;69466;-73
2021/11/23 05:55:06;;;;;;;7.70;5.50;;;;;;;1.10;95.11;99841.09;102327;1310;74608;-73
2021/11/23 05:57:33;;;;;;;8.50;6.00;;;;;;;1.00;95.12;99841.05;102420;1314;61530;-72
2021/11/23 06:00:00;;;;;;;8.90;5.80;;;;;;;0.92;95.16;99842.20;102407;1317;62843;-72
2021/11/23 06:02:26;;;;;;;13.10;6.50;;;;;;;0.84;95.20;99844.95;102459;1310;75847;-72
2021/11/23 06:04:53;;;;;;;9.90;7.10;;;;;;;0.76;95.30;99848.91;102284;1316;69400;-73
2021/11/23 06:07:20;;;;;;;10.60;7.20;;;;;;;0.68;95.28;99858.46;102328;1317;74450;-73
2021/11/23 06:09:46;;;;;;;9.70;7.40;;;;;;;0.61;95.42;99862.04;102431;1313;61347;-73
2021/11/23 06:12:13;;;;;;;12.00;6.90;;;;;;;0.54;95.51;99865.63;102415;1311;61314;-73
2021/11/23 06:14:40;;;;;;;12.60;8.00;;;;;;;0.47;95.38;99869.02;102567;1310;76436;-72
2021/11/23 06:17:09;;;;;;;12.20;7.50;;;;;;;0.41;95.33;99876.61;102418;1313;70518;-72
2021/11/23 06:19:37;;;;;;;13.20;7.70;;;;;;;0.35;95.33;99878.26;102306;1310;72801;-74
2021/11/23 06:22:06;;;;;;;11.10;8.60;;;;;;;0.30;95.30;99885.31;102325;1311;61298;-73
2021/11/23 06:24:33;;;;;;;11.10;8.00;;;;;;;0.26;95.22;99885.17;102332;1317;61481;-73
2021/11/23 06:27:00;;;;;;;12.30;8.90;;;;;;;0.22;95.28;99891.50;102318;1317;76520;-72
2021/11/23 06:29:27;;;;;;;9.40;7.40;;;;;;;0.19;95.31;99895.56;102298;1310;71051;-72
2021/11/23 06:31:54;;;;;;;11.10;8.30;;;;;;;0.15;95.18;99899.80;101961;1316;74490;-72
2021/11/23 06:34:21;;;;;;;10.60;7.10;;;;;;;0.13;95.04;99908.90;101837;1313;61393;-72
2021/11/23 06:36:47;;;;;;;11.60;7.80;;;;;;;0.11;94.96;99919.40;102374;1310;61291;-72
2021/11/23 06:39:14;;;;;;;11.20;7.50;;;;;;;0.10;95.03;99923.42;102294;1313;75507;-73
2021/11/23 06:41:40;;;;;;;15.90;7.70;;;;;;;0.08;94.95;99929.21;101930;1317;69199;-72
2021/11/23 06:44:08;;;;;;;9.80;7.50;;;;;;;0.08;94.95;99931.83;102335;1313;74588;-73
2021/11/23 06:46:34;;;;;;;15.00;8.30;;;;;;;0.10;95.05;99937.23;102099;1314;61352;-73
2021/11/23 06:49:01;;;;;;;11.90;8.60;;;;;;;0.10;95.16;99942.30;102346;1310;61256;-72
2021/11/23 06:51:27;;;;;;;12.90;9.80;;;;;;;0.11;95.20;99944.21;102336;1316;75544;-72
2021/11/23 06:53:54;;;;;;;11.00;7.40;;;;;;;0.13;95.25;99946.81;102380;1316;68884;-72
2021/11/23 06:56:21;;;;;;;14.90;7.20;;;;;;;0.13;95.20;99945.77;102328;1314;73872;-73
2021/11/23 06:58:48;;;;;;;10.90;7.40;;;;;;;0.14;95.26;99949.09;102389;1310;61421;-73
2021/11/23 07:01:16;;;;;;;12.70;6.90;;;;;;;0.15;95.21;99947.50;102354;1311;62649;-72
2021/11/23 07:03:42;;;;;;;10.90;6.60;;;;;;;0.16;95.25;99943.46;102291;1313;75242;-72
2021/11/23 07:06:09;;;;;;;9.70;5.90;;;;;;;0.19;95.23;99941.52;102338;1316;70535;-73
2021/11/23 07:08:36;;;;;;;10.20;6.10;;;;;;;0.22;95.37;99939.40;102405;1316;74621;-73
2021/11/23 07:11:05;;;;;;;8.30;6.50;;;;;;;0.24;95.33;99944.45;102417;1317;61298;-74
2021/11/23 07:13:34;;;;;;;8.60;6.60;;;;;;;0.26;95.35;99947.21;101983;1316;61401;-71
2021/11/23 07:16:02;;;;;;;11.60;8.00;;;;;;;0.28;95.32;99944.58;102517;1314;75541;-72
2021/11/23 07:18:28;;;;;;;11.90;9.00;;;;;;;0.31;95.23;99938.95;101835;1316;69618;-72
2021/11/23 07:20:55;;;;;;;14.40;10.60;;;;;;;0.35;95.17;99932.97;102326;1310;72970;-72
2021/11/23 07:23:23;;;;;;;13.20;10.00;;;;;;;0.40;95.19;99931.35;100895;1318;1005645;-72
2021/11/23 07:25:50;;;;;;;15.10;12.00;;;;;;;0.43;95.04;99929.21;102302;1313;62128;-72
2021/11/23 07:28:17;;;;;;;14.00;12.20;;;;;;;0.48;94.94;99929.52;102407;1310;75446;-72
2021/11/23 07:30:45;;;;;;;16.30;11.70;;;;;;;0.54;94.89;99928.92;102384;1317;69559;-72
2021/11/23 07:33:11;;;;;;;14.40;10.00;;;;;;;0.60;94.94;99928.15;101939;1316;74409;-73
2021/11/23 07:35:38;;;;;;;15.00;8.80;;;;;;;0.66;94.92;99927.04;102309;1313;61415;-72
2021/11/23 07:38:05;;;;;;;12.50;8.20;;;;;;;0.71;94.67;99921.90;102364;1314;61412;-73
2021/11/23 07:40:33;;;;;;;10.50;7.80;;;;;;;0.76;94.59;99926.58;102466;1317;73674;-73
2021/11/23 07:42:59;;;;;;;11.50;8.40;;;;;;;0.80;94.47;99922.48;102379;1313;69396;-74
2021/11/23 07:45:26;;;;;;;13.20;8.90;;;;;;;0.83;94.21;99917.38;102223;1318;73537;-72
2021/11/23 07:47:53;;;;;;;15.60;10.10;;;;;;;0.87;94.31;99921.70;102333;1314;61418;-72
2021/11/23 07:50:19;;;;;;;14.60;9.50;;;;;;;0.93;94.19;99928.27;102362;1310;61191;-72
2021/11/23 07:52:46;;;;;;;13.70;10.50;;;;;;;0.97;94.05;99925.95;102371;1318;74880;-73
2021/11/23 07:55:13;;;;;;;15.30;10.10;;;;;;;1.01;93.64;99925.91;102442;1311;70532;-75
2021/11/23 07:57:40;;;;;;;11.70;8.60;;;;;;;1.04;93.44;99928.66;102422;1314;74500;-73
2021/11/23 08:00:07;;;;;;;15.60;10.80;;;;;;;1.08;92.72;99930.90;102736;1314;61326;-72
2021/11/23 08:02:34;;;;;;;14.40;9.90;;;;;;;1.12;92.95;99928.55;102813;1317;61415;-72
2021/11/23 08:05:01;;;;;;;18.70;10.60;;;;;;;1.17;92.95;99933.55;102713;1310;76516;-73
2021/11/23 08:07:28;;;;;;;17.90;10.80;;;;;;;1.22;92.77;99935.77;102470;1316;69547;-73
2021/11/23 08:09:55;;;;;;;15.20;11.30;;;;;;;1.27;92.47;99930.80;102527;1311;75233;-74
2021/11/23 08:12:21;;;;;;;17.50;12.10;;;;;;;1.32;92.15;99932.65;102503;1316;61750;-73
2021/11/23 08:14:48;;;;;;;13.30;10.40;;;;;;;1.38;91.86;99929.42;102564;1311;62184;-73
2021/11/23 08:17:15;;;;;;;13.60;11.20;;;;;;;1.41;91.22;99928.85;102499;1316;75336;-74
2021/11/23 08:19:41;;;;;;;18.70;13.00;;;;;;;1.46;91.45;99930.35;102298;1311;71033;-73
2021/11/23 08:22:08;;;;;;;16.70;11.00;;;;;;;1.53;91.50;99934.98;102528;1316;73686;-73
2021/11/23 08:24:34;;;;;;;13.20;10.30;;;;;;;1.59;91.14;99942.92;102207;1316;61317;-73
2021/11/23 08:27:01;;;;;;;14.30;10.80;;;;;;;1.65;91.12;99939.33;102612;1313;62157;-74
2021/11/23 08:29:28;;;;;;;14.40;11.10;;;;;;;1.71;90.84;99936.61;102655;1310;76395;-76
2021/11/23 08:31:55;;;;;;;17.80;11.10;;;;;;;1.78;90.61;99934.95;102660;1310;67692;-73
2021/11/23 08:34:23;;;;;;;15.40;9.60;;;;;;;1.84;90.35;99933.07;102246;1319;73609;-72
2021/11/23 08:36:50;;;;;;;13.30;9.70;;;;;;;1.90;89.55;99935.11;102868;1314;61432;-73
2021/11/23 08:39:18;;;;;;;13.10;9.10;;;;;;;1.92;89.09;99931.39;102988;1314;62161;-73
2021/11/23 08:41:45;;;;;;;14.30;9.60;;;;;;;1.95;88.59;99932.39;103289;1317;76517;-73
2021/11/23 08:44:11;;;;;;;14.60;9.20;;;;;;;2.02;88.84;99932.09;103040;1317;69491;-72
2021/11/23 08:46:39;;;;;;;10.90;8.70;;;;;;;2.08;87.88;99936.00;103169;1313;74435;-73
2021/11/23 08:49:06;;;;;;;9.60;7.10;;;;;;;2.12;87.02;99938.58;104948;1316;59528;-70
2021/11/23 08:51:38;;;;;;;11.10;8.10;;;;;;;2.16;86.79;99938.85;105679;1310;61095;-72
2021/11/23 08:54:06;;;;;;;11.00;7.70;;;;;;;2.21;87.24;99936.30;105128;1310;75368;-73
2021/11/23 08:56:44;;;;;;;11.20;7.80;;;;;;;2.29;87.65;99935.11;105417;1310;69425;-72
2021/11/23 08:59:13;;;;;;;10.80;7.10;;;;;;;2.36;87.56;99933.75;103309;1316;73489;-74
2021/11/23 09:01:42;;;;;;;12.10;7.40;;;;;;;2.44;87.84;99932.04;102580;1317;61762;-78
2021/11/23 09:04:08;;;;;;;9.10;6.30;;;;;;;2.50;87.43;99932.64;102916;1317;61884;-82
2021/11/23 09:06:38;;;;;;;10.90;6.60;;;;;;;2.55;87.79;99929.17;102519;1320;75049;-83
2021/11/23 09:09:08;;;;;;;9.20;6.20;;;;;;;2.61;87.36;99932.05;102986;1310;69478;-81
2021/11/23 09:11:37;;;;;;;9.70;5.40;;;;;;;2.66;86.94;99933.02;102968;1318;74350;-81
2021/11/23 09:14:04;;;;;;;8.10;5.80;;;;;;;2.69;86.00;99930.52;102825;1310;62697;-83
2021/11/23 09:16:34;;;;;;;7.90;5.60;;;;;;;2.72;86.60;99919.91;102833;1317;61664;-83
2021/11/23 09:19:03;;;;;;;10.00;5.80;;;;;;;2.76;85.90;99919.66;102506;1316;76246;-83
2021/11/23 09:21:30;;;;;;;7.70;5.50;;;;;;;2.80;86.16;99916.95;103158;1317;67656;-84
2021/11/23 09:23:58;;;;;;;11.70;5.90;;;;;;;2.85;85.73;99920.02;103162;1316;73033;-81
2021/11/23 09:26:25;;;;;;;9.00;5.70;;;;;;;2.87;84.72;99923.65;102989;1310;61294;-83
2021/11/23 09:28:52;;;;;;;6.20;4.70;;;;;;;2.87;84.38;99934.52;102951;1317;61592;-81
2021/11/23 09:31:19;;;;;;;9.00;5.00;;;;;;;2.90;84.57;99933.74;103151;1316;76614;-84
2021/11/23 09:33:46;;;;;;;7.30;4.50;;;;;;;2.95;83.75;99929.61;103114;1316;69525;-75
2021/11/23 09:36:13;;;;;;;7.00;4.70;;;;;;;2.99;83.85;99924.27;102392;1317;73684;-71
2021/11/23 09:38:40;;;;;;;6.10;4.00;;;;;;;3.04;83.13;99925.04;101848;1320;61377;-70
2021/11/23 09:41:08;;;;;;;6.30;3.80;;;;;;;3.09;83.24;99918.09;102254;1313;62192;-70
2021/11/23 09:43:36;;;;;;;6.40;3.50;;;;;;;3.16;83.48;99916.73;102282;1316;76456;-71
2021/11/23 09:46:07;;;;;;;4.80;2.80;;;;;;;3.22;83.14;99913.60;102320;1317;70500;-71
2021/11/23 09:48:40;;;;;;;4.90;3.20;;;;;;;3.29;83.35;99913.25;102221;1314;71326;-71
2021/11/23 09:51:28;;;;;;;4.10;3.10;;;;;;;3.36;81.86;99913.80;102349;1317;61282;-72
2021/11/23 09:53:57;;;;;;;6.30;3.70;;;;;;;3.40;82.04;99907.23;102308;1310;61374;-71
2021/11/23 09:56:25;;;;;;;6.30;4.00;;;;;;;3.45;82.47;99899.35;102294;1313;76700;-71
2021/11/23 09:58:56;;;;;;;6.20;3.90;;;;;;;3.55;82.61;99902.13;102318;1317;69553;-71
2021/11/23 10:01:25;;;;;;;5.30;3.00;;;;;;;3.62;81.42;99901.25;102223;1317;73552;-71
2021/11/23 10:03:55;;;;;;;5.30;3.30;;;;;;;3.66;81.47;99897.65;102300;1316;61358;-71
2021/11/23 10:06:25;;;;;;;4.70;3.10;;;;;;;3.70;81.00;99886.11;102397;1317;61285;-71
2021/11/23 10:08:55;;;;;;;4.70;2.70;;;;;;;3.78;81.24;99880.99;102330;1315;76500;-70
2021/11/23 10:11:29;;;;;;;5.20;2.80;;;;;;;3.86;80.42;99880.44;102082;1314;69054;-71
2021/11/23 10:14:00;;;;;;;5.00;2.60;;;;;;;3.92;80.19;99872.71;102288;1314;74734;-71
2021/11/23 10:16:46;;;;;;;9.30;4.10;;;;;;;3.98;79.16;99876.10;102391;1317;61317;-71
2021/11/23 10:19:15;;;;;;;5.80;3.20;;;;;;;3.99;78.53;99876.95;102248;1313;61428;-71
2021/11/23 10:21:53;;;;;;;7.50;4.00;;;;;;;4.04;79.50;99873.84;102395;1316;74467;-72
2021/11/23 10:24:22;;;;;;;6.60;3.80;;;;;;;4.14;79.99;99876.02;102327;1317;69083;-71
2021/11/23 10:26:49;;;;;;;6.00;3.70;;;;;;;4.24;79.42;99878.94;102353;1317;73838;-71
2021/11/23 10:29:16;;;;;;;6.70;4.10;;;;;;;4.26;77.52;99876.23;102388;1316;61309;-70
2021/11/23 10:31:46;;;;;;;9.00;4.50;;;;;;;4.27;78.99;99875.33;102284;1316;61399;-70
2021/11/23 10:34:17;;;;;;;9.10;5.20;;;;;;;4.38;78.82;99872.91;102315;1310;75369;-70
2021/11/23 10:36:47;;;;;;;7.00;4.40;;;;;;;4.46;78.47;99872.54;102141;1319;69774;-70
2021/11/23 10:39:17;;;;;;;7.60;5.50;;;;;;;4.49;78.25;99869.45;102378;1316;73474;-71
2021/11/23 10:41:53;;;;;;;6.30;3.90;;;;;;;4.52;78.26;99866.89;102330;1310;61460;-70
2021/11/23 10:44:31;;;;;;;6.90;4.00;;;;;;;4.56;77.75;99866.08;102323;1316;61311;-71
2021/11/23 10:47:04;;;;;;;7.80;3.80;;;;;;;4.56;78.11;99862.19;102347;1310;75451;-71
2021/11/23 10:49:34;;;;;;;5.90;3.70;;;;;;;4.63;78.29;99867.81;102261;1313;67701;-72
2021/11/23 10:52:04;;;;;;;8.00;4.10;;;;;;;4.66;78.08;99871.95;102313;1316;73314;-71
2021/11/23 10:54:32;;;;;;;7.80;4.30;;;;;;;4.67;77.01;99869.28;101822;1319;61341;-70
2021/11/23 10:57:10;;;;;;;6.80;4.20;;;;;;;4.66;77.44;99866.85;102261;1313;61305;-70
2021/11/23 10:59:39;;;;;;;5.80;4.00;;;;;;;4.67;77.31;99868.42;102216;1316;75434;-71
2021/11/23 11:02:08;;;;;;;7.00;4.50;;;;;;;4.66;76.96;99866.86;102384;1314;70053;-74
2021/11/23 11:04:39;;;;;;;5.50;3.80;;;;;;;4.69;77.39;99868.55;102497;1310;73615;-72
2021/11/23 11:07:07;;;;;;;7.10;4.10;;;;;;;4.75;77.18;99868.17;102320;1310;61278;-72
2021/11/23 11:09:35;;;;;;;6.40;4.20;;;;;;;4.81;77.39;99866.75;102334;1315;62165;-71
2021/11/23 11:12:03;;;;;;;5.30;3.70;;;;;;;4.88;77.35;99862.50;102405;1310;76509;-71
2021/11/23 11:14:35;;;;;;;5.80;3.50;;;;;;;4.94;76.99;99863.22;102269;1313;69879;-71
2021/11/23 11:17:04;;;;;;;5.20;3.10;;;;;;;5.01;76.56;99859.83;102535;1314;73521;-71
2021/11/23 11:19:49;;;;;;;4.50;3.10;;;;;;;5.04;75.81;99857.81;102217;1314;61680;-71
2021/11/23 11:22:21;;;;;;;6.00;3.50;;;;;;;5.03;74.99;99854.84;102589;1314;61333;-70
2021/11/23 11:25:42;;;;;;;7.70;4.00;;;;;;;5.05;75.50;99856.71;102371;1317;75426;-70
2021/11/23 11:27:47;;;;;;;4.20;3.10;;;;;;;5.15;75.46;99853.08;102247;1310;69736;-72